createdAt,value
2023-04-30T00:00:11.254Z,75.02
2023-04-30T00:02:39.624Z,74.60
2023-04-30T00:05:08.068Z,75.33
2023-04-30T00:07:36.122Z,75.57
2023-04-30T00:10:05.627Z,75.90
2023-04-30T00:12:34.837Z,76.20
2023-04-30T00:15:02.649Z,75.88
2023-04-30T00:17:30.524Z,76.61
2023-04-30T00:19:58.312Z,75.88
2023-04-30T00:22:26.137Z,76.37
2023-04-30T00:24:54.055Z,76.54
2023-04-30T00:27:21.896Z,76.72
2023-04-30T00:29:51.250Z,76.92
2023-04-30T00:32:19.207Z,76.75
2023-04-30T00:34:47.257Z,76.58
2023-04-30T00:37:15.096Z,76.53
2023-04-30T00:39:42.944Z,76.91
2023-04-30T00:42:10.838Z,77.22
2023-04-30T00:44:38.583Z,77.23
2023-04-30T00:47:07.735Z,77.62
2023-04-30T00:49:35.724Z,76.95
2023-04-30T00:52:03.641Z,77.24
2023-04-30T00:54:31.746Z,77.23
2023-04-30T00:56:59.874Z,76.81
2023-04-30T00:59:30.100Z,77.32
2023-04-30T01:01:57.981Z,77.09
2023-04-30T01:04:27.504Z,77.12
2023-04-30T01:06:55.562Z,77.13
2023-04-30T01:09:23.549Z,77.54
2023-04-30T01:12:04.746Z,77.72
2023-04-30T01:14:41.949Z,77.32
2023-04-30T01:17:18.753Z,77.20
2023-04-30T01:19:48.240Z,77.29
2023-04-30T01:22:32.990Z,77.45
2023-04-30T01:25:20.311Z,77.82
2023-04-30T01:28:15.936Z,77.64
2023-04-30T01:30:45.792Z,77.67
2023-04-30T01:33:13.828Z,78.38
2023-04-30T01:35:58.114Z,78.48
2023-04-30T01:38:35.917Z,78.30
2023-04-30T01:41:11.670Z,79.09
2023-04-30T01:43:51.061Z,79.08
2023-04-30T01:46:25.753Z,79.39
2023-04-30T01:48:59.970Z,79.32
2023-04-30T01:51:33.795Z,79.36
2023-04-30T01:54:07.250Z,79.65
2023-04-30T01:56:41.866Z,79.93
2023-04-30T01:59:12.036Z,79.95
2023-04-30T02:01:39.886Z,79.92
2023-04-30T02:04:07.703Z,79.87
2023-04-30T02:06:35.734Z,80.49
2023-04-30T02:09:05.425Z,80.69
2023-04-30T02:11:33.437Z,80.41
2023-04-30T02:14:01.271Z,80.83
2023-04-30T02:16:30.458Z,80.59
2023-04-30T02:18:58.272Z,80.89
2023-04-30T02:21:27.289Z,81.43
2023-04-30T02:23:55.528Z,81.51
2023-04-30T02:26:23.304Z,81.69
2023-04-30T02:28:51.008Z,81.85
2023-04-30T02:31:18.981Z,82.48
2023-04-30T02:33:48.360Z,82.13
2023-04-30T02:36:16.105Z,82.16
2023-04-30T02:38:43.822Z,82.77
2023-04-30T02:41:11.530Z,82.90
2023-04-30T02:43:39.329Z,83.24
2023-04-30T02:46:07.163Z,83.34
2023-04-30T02:48:34.890Z,83.02
2023-04-30T02:51:04.644Z,83.15
2023-04-30T02:53:32.425Z,83.03
2023-04-30T02:56:00.650Z,82.74
2023-04-30T02:58:28.468Z,82.66
2023-04-30T03:00:56.351Z,82.03
2023-04-30T03:03:24.197Z,81.98
2023-04-30T03:05:52.079Z,81.52
2023-04-30T03:08:21.240Z,81.53
2023-04-30T03:10:49.069Z,81.39
2023-04-30T03:13:16.883Z,81.87
2023-04-30T03:15:45.232Z,81.64
2023-04-30T03:18:13.148Z,81.49
2023-04-30T03:20:41.016Z,81.82
2023-04-30T03:23:08.733Z,81.61
2023-04-30T03:25:40.476Z,81.32
2023-04-30T03:28:08.234Z,81.69
2023-04-30T03:30:36.584Z,81.54
2023-04-30T03:33:06.644Z,81.77
2023-04-30T03:35:34.656Z,81.84
2023-04-30T03:38:02.444Z,81.82
2023-04-30T03:40:30.193Z,82.44
2023-04-30T03:42:59.440Z,82.71
2023-04-30T03:45:27.239Z,82.91
2023-04-30T03:47:55.216Z,83.09
2023-04-30T03:50:23.019Z,83.57
2023-04-30T03:52:50.800Z,83.67
2023-04-30T03:55:18.795Z,84.00
2023-04-30T03:57:46.604Z,83.87
2023-04-30T04:00:16.309Z,83.44
2023-04-30T04:02:44.323Z,83.34
2023-04-30T04:05:12.135Z,83.95
2023-04-30T04:07:39.942Z,83.81
2023-04-30T04:10:08.855Z,84.25
2023-04-30T04:12:36.956Z,84.63
2023-04-30T04:15:05.149Z,84.66
2023-04-30T04:17:34.302Z,84.58
2023-04-30T04:20:02.124Z,84.55
2023-04-30T04:22:29.921Z,84.06
2023-04-30T04:24:57.683Z,84.12
2023-04-30T04:27:25.450Z,84.42
2023-04-30T04:29:55.165Z,84.56
2023-04-30T04:32:24.583Z,84.42
2023-04-30T04:34:55.354Z,84.30
2023-04-30T04:37:23.418Z,84.34
2023-04-30T04:39:51.602Z,84.12
2023-04-30T04:42:20.080Z,84.13
2023-04-30T04:44:48.135Z,84.23
2023-04-30T04:47:16.703Z,84.24
2023-04-30T04:49:44.483Z,83.73
2023-04-30T04:52:13.663Z,83.74
2023-04-30T04:54:41.546Z,83.50
2023-04-30T04:57:09.333Z,83.53
2023-04-30T04:59:37.102Z,83.03
2023-04-30T05:02:04.937Z,83.17
2023-04-30T05:04:32.817Z,83.50
2023-04-30T05:07:00.659Z,84.04
2023-04-30T05:09:29.750Z,83.21
2023-04-30T05:11:57.491Z,83.04
2023-04-30T05:14:25.358Z,83.08
2023-04-30T05:16:53.354Z,82.77
2023-04-30T05:19:21.049Z,82.28
2023-04-30T05:21:48.840Z,82.09
2023-04-30T05:24:16.669Z,82.39
2023-04-30T05:26:45.871Z,82.22
2023-04-30T05:29:14.818Z,81.74
2023-04-30T05:31:42.845Z,82.22
2023-04-30T05:34:10.600Z,81.85
2023-04-30T05:36:39.136Z,81.53
2023-04-30T05:39:06.883Z,80.96
2023-04-30T05:41:34.690Z,81.20
2023-04-30T05:44:05.059Z,81.41
2023-04-30T05:46:32.984Z,81.20
2023-04-30T05:49:00.856Z,81.94
2023-04-30T05:51:29.402Z,81.32
2023-04-30T05:53:57.573Z,81.56
2023-04-30T05:56:26.150Z,81.55
2023-04-30T05:58:53.951Z,81.38
2023-04-30T06:01:24.411Z,81.98
2023-04-30T06:03:52.429Z,81.25
2023-04-30T06:06:20.412Z,81.18
2023-04-30T06:08:48.318Z,80.47
2023-04-30T06:11:16.463Z,80.83
2023-04-30T06:13:44.500Z,80.46
2023-04-30T06:16:12.659Z,79.95
2023-04-30T06:18:42.050Z,79.70
2023-04-30T06:21:09.878Z,79.95
2023-04-30T06:23:38.607Z,79.67
2023-04-30T06:26:06.368Z,79.70
2023-04-30T06:28:34.232Z,79.27
2023-04-30T06:31:02.095Z,79.14
2023-04-30T06:33:30.167Z,78.36
2023-04-30T06:36:00.639Z,78.59
2023-04-30T06:38:28.542Z,78.12
2023-04-30T06:40:56.512Z,77.90
2023-04-30T06:43:25.741Z,77.12
2023-04-30T06:45:53.572Z,77.16
2023-04-30T06:48:21.447Z,77.46
2023-04-30T06:50:49.348Z,76.08
2023-04-30T06:53:18.684Z,75.76
2023-04-30T06:55:47.530Z,75.37
2023-04-30T06:58:15.432Z,76.26
2023-04-30T07:00:43.914Z,75.63
2023-04-30T07:03:11.905Z,75.89
2023-04-30T07:05:39.889Z,75.46
2023-04-30T07:08:08.729Z,75.29
2023-04-30T07:10:38.372Z,75.18
2023-04-30T07:13:08.330Z,74.42
2023-04-30T07:15:37.577Z,74.56
2023-04-30T07:18:07.536Z,74.08
2023-04-30T07:20:35.682Z,73.64
2023-04-30T07:23:03.593Z,73.21
2023-04-30T07:25:31.549Z,73.71
2023-04-30T07:28:01.181Z,73.19
2023-04-30T07:30:29.028Z,73.28
2023-04-30T07:32:57.623Z,72.82
2023-04-30T07:35:25.685Z,73.00
2023-04-30T07:37:53.553Z,72.18
2023-04-30T07:40:29.149Z,71.68
2023-04-30T07:43:05.701Z,71.13
2023-04-30T07:45:34.839Z,71.31
2023-04-30T07:48:03.112Z,71.38
2023-04-30T07:50:34.009Z,69.81
2023-04-30T07:53:02.938Z,69.83
2023-04-30T07:55:31.247Z,70.35
2023-04-30T07:58:00.025Z,70.15
2023-04-30T08:00:31.068Z,70.26
2023-04-30T08:03:00.399Z,70.13
2023-04-30T08:05:28.419Z,69.85
2023-04-30T08:07:56.175Z,69.38
2023-04-30T08:10:24.284Z,69.28
2023-04-30T08:12:53.150Z,68.54
2023-04-30T08:15:22.224Z,68.50
2023-04-30T08:17:53.016Z,68.78
2023-04-30T08:20:23.917Z,69.19
2023-04-30T08:22:52.309Z,68.76
2023-04-30T08:25:20.807Z,67.88
2023-04-30T08:27:49.033Z,67.81
2023-04-30T08:30:17.390Z,67.57
2023-04-30T08:32:46.115Z,67.09
2023-04-30T08:35:17.201Z,67.32
2023-04-30T08:37:45.226Z,66.58
2023-04-30T08:40:14.128Z,66.47
2023-04-30T08:42:46.349Z,66.54
2023-04-30T08:45:14.691Z,66.35
2023-04-30T08:47:43.072Z,66.15
2023-04-30T08:50:10.994Z,64.68
2023-04-30T08:52:41.506Z,64.81
2023-04-30T08:55:11.280Z,65.53
2023-04-30T08:57:39.750Z,65.27
2023-04-30T09:00:08.890Z,64.61
2023-04-30T09:02:40.776Z,63.84
2023-04-30T09:05:12.636Z,63.90
2023-04-30T09:07:48.921Z,63.68
2023-04-30T09:10:24.093Z,63.12
2023-04-30T09:13:01.694Z,61.87
2023-04-30T09:15:30.488Z,62.47
2023-04-30T09:18:09.579Z,62.12
2023-04-30T09:20:38.630Z,60.63
2023-04-30T09:23:09.400Z,60.68
2023-04-30T09:25:41.760Z,60.72
2023-04-30T09:28:14.230Z,60.74
2023-04-30T09:30:42.884Z,60.27
2023-04-30T09:33:12.284Z,59.65
2023-04-30T09:35:41.825Z,59.85
2023-04-30T09:38:27.590Z,60.15
2023-04-30T09:40:55.444Z,59.73
2023-04-30T09:43:23.367Z,59.51
2023-04-30T09:45:51.727Z,59.05
2023-04-30T09:48:22.288Z,58.33
2023-04-30T09:50:50.613Z,58.14
2023-04-30T09:53:21.615Z,58.97
2023-04-30T09:55:50.924Z,59.29
2023-04-30T09:58:20.576Z,58.70
2023-04-30T10:00:49.630Z,58.28
2023-04-30T10:03:17.725Z,59.31
2023-04-30T10:05:48.437Z,59.13
2023-04-30T10:08:24.208Z,58.62
2023-04-30T10:10:59.576Z,57.90
2023-04-30T10:13:31.448Z,57.14
2023-04-30T10:16:03.193Z,57.26
2023-04-30T10:18:35.738Z,57.26
2023-04-30T10:21:10.366Z,57.00
2023-04-30T10:23:42.255Z,56.58
2023-04-30T10:26:12.374Z,55.76
2023-04-30T10:28:40.851Z,54.79
2023-04-30T10:31:10.765Z,55.45
2023-04-30T10:33:50.026Z,55.54
2023-04-30T10:36:27.867Z,55.03
2023-04-30T10:38:58.308Z,54.39
2023-04-30T10:41:28.538Z,54.00
2023-04-30T10:44:01.843Z,54.54
2023-04-30T10:46:30.189Z,54.91
2023-04-30T10:48:58.285Z,54.50
2023-04-30T10:51:46.391Z,53.25
2023-04-30T10:54:18.846Z,53.02
2023-04-30T10:56:48.187Z,52.83
2023-04-30T10:59:16.397Z,52.28
2023-04-30T11:01:58.732Z,51.62
2023-04-30T11:04:27.438Z,51.31
2023-04-30T11:07:08.721Z,51.48
2023-04-30T11:09:42.463Z,51.47
2023-04-30T11:12:16.366Z,51.37
2023-04-30T11:14:46.492Z,51.64
2023-04-30T11:17:25.245Z,50.38
2023-04-30T11:19:55.055Z,49.66
2023-04-30T11:22:24.809Z,49.44
2023-04-30T11:25:05.770Z,50.39
2023-04-30T11:27:35.520Z,50.21
2023-04-30T11:30:05.527Z,51.40
2023-04-30T11:32:35.915Z,50.77
2023-04-30T11:35:04.944Z,50.42
2023-04-30T11:37:35.814Z,49.81
2023-04-30T11:40:07.975Z,48.69
2023-04-30T11:42:36.727Z,48.84
2023-04-30T11:45:06.832Z,47.72
2023-04-30T11:47:45.686Z,48.09
2023-04-30T11:50:15.259Z,47.99
2023-04-30T11:52:44.216Z,48.04
2023-04-30T11:55:18.209Z,48.23
2023-04-30T11:57:47.750Z,47.93
2023-04-30T12:00:17.833Z,47.12
2023-04-30T12:02:48.293Z,47.50
2023-04-30T12:05:18.113Z,47.22
2023-04-30T12:07:48.189Z,47.69
2023-04-30T12:10:17.962Z,47.87
2023-04-30T12:12:46.122Z,47.34
2023-04-30T12:15:18.884Z,46.17
2023-04-30T12:17:48.160Z,46.84
2023-04-30T12:20:17.170Z,45.95
2023-04-30T12:22:45.721Z,45.57
2023-04-30T12:25:15.116Z,45.63
2023-04-30T12:27:48.936Z,45.88
2023-04-30T12:30:21.339Z,45.57
2023-04-30T12:32:51.768Z,45.68
2023-04-30T12:35:22.076Z,45.10
2023-04-30T12:37:51.338Z,44.88
2023-04-30T12:40:20.571Z,44.81
2023-04-30T12:42:51.995Z,45.19
2023-04-30T12:45:44.520Z,45.35
2023-04-30T12:48:12.620Z,44.08
2023-04-30T12:50:40.851Z,43.20
2023-04-30T12:53:10.026Z,42.38
2023-04-30T12:55:39.508Z,42.55
2023-04-30T12:58:10.932Z,42.41
2023-04-30T13:00:50.333Z,41.81
2023-04-30T13:03:21.188Z,42.63
2023-04-30T13:05:50.888Z,41.86
2023-04-30T13:08:20.797Z,42.60
2023-04-30T13:10:50.110Z,42.37
2023-04-30T13:13:20.472Z,41.84
2023-04-30T13:15:48.597Z,41.00
2023-04-30T13:18:17.009Z,41.53
2023-04-30T13:20:46.005Z,40.30
2023-04-30T13:23:14.090Z,40.43
2023-04-30T13:25:42.788Z,40.32
2023-04-30T13:28:10.761Z,40.98
2023-04-30T13:30:41.217Z,42.07
2023-04-30T13:33:09.584Z,42.20
2023-04-30T13:35:39.086Z,42.03
2023-04-30T13:38:07.436Z,42.03
2023-04-30T13:40:35.593Z,42.99
2023-04-30T13:43:04.385Z,41.91
2023-04-30T13:45:32.384Z,42.14
2023-04-30T13:48:01.876Z,42.09
2023-04-30T13:50:30.804Z,41.40
2023-04-30T13:52:59.501Z,40.80
2023-04-30T13:55:30.003Z,40.67
2023-04-30T13:57:58.726Z,40.16
2023-04-30T14:00:26.826Z,39.67
2023-04-30T14:02:55.810Z,39.56
2023-04-30T14:05:25.466Z,39.48
2023-04-30T14:07:53.451Z,40.74
2023-04-30T14:10:21.687Z,41.09
2023-04-30T14:12:49.785Z,41.31
2023-04-30T14:15:17.998Z,41.30
2023-04-30T14:17:46.144Z,40.12
2023-04-30T14:20:14.996Z,41.13
2023-04-30T14:22:55.503Z,42.28
2023-04-30T14:25:24.099Z,42.06
2023-04-30T14:27:52.533Z,42.63
2023-04-30T14:30:20.522Z,42.64
2023-04-30T14:32:48.619Z,42.36
2023-04-30T14:35:16.766Z,43.06
2023-04-30T14:37:46.469Z,42.88
2023-04-30T14:40:16.413Z,41.64
2023-04-30T14:42:44.536Z,41.69
2023-04-30T14:45:13.020Z,42.07
2023-04-30T14:47:42.290Z,41.82
2023-04-30T14:50:11.207Z,42.41
2023-04-30T14:52:42.254Z,41.42
2023-04-30T14:55:12.833Z,41.42
2023-04-30T14:57:41.302Z,41.60
2023-04-30T15:00:11.312Z,41.10
2023-04-30T15:02:39.798Z,41.70
2023-04-30T15:05:09.222Z,41.75
2023-04-30T15:07:38.138Z,42.10
2023-04-30T15:10:08.198Z,41.83
2023-04-30T15:12:39.957Z,40.92
2023-04-30T15:15:09.869Z,41.22
2023-04-30T15:17:41.542Z,42.06
2023-04-30T15:20:11.043Z,41.42
2023-04-30T15:22:39.409Z,41.70
2023-04-30T15:25:13.644Z,42.17
2023-04-30T15:27:47.748Z,42.65
2023-04-30T15:30:18.884Z,42.67
2023-04-30T15:32:48.800Z,42.19
2023-04-30T15:35:18.832Z,41.90
2023-04-30T15:37:47.209Z,41.91
2023-04-30T15:40:18.161Z,42.30
2023-04-30T15:42:48.230Z,41.76
2023-04-30T15:45:16.667Z,41.97
2023-04-30T15:47:45.724Z,42.53
2023-04-30T15:50:14.205Z,42.11
2023-04-30T15:52:42.501Z,42.16
2023-04-30T15:55:11.371Z,43.00
2023-04-30T15:57:39.542Z,42.52
2023-04-30T16:00:11.447Z,41.74
2023-04-30T16:02:41.518Z,41.60
2023-04-30T16:05:10.518Z,42.30
2023-04-30T16:07:40.362Z,42.34
2023-04-30T16:10:11.084Z,42.67
2023-04-30T16:12:39.489Z,43.14
2023-04-30T16:15:11.172Z,43.15
2023-04-30T16:17:39.487Z,43.20
2023-04-30T16:20:09.228Z,41.56
2023-04-30T16:22:37.696Z,42.71
2023-04-30T16:25:08.056Z,42.03
2023-04-30T16:27:39.625Z,42.84
2023-04-30T16:30:11.480Z,42.46
2023-04-30T16:32:46.060Z,42.97
2023-04-30T16:35:14.666Z,43.16
2023-04-30T16:37:42.804Z,42.11
2023-04-30T16:40:12.377Z,42.39
2023-04-30T16:42:40.671Z,42.82
2023-04-30T16:45:11.316Z,43.57
2023-04-30T16:47:41.865Z,43.78
2023-04-30T16:50:11.205Z,43.54
2023-04-30T16:52:39.440Z,44.15
2023-04-30T16:55:11.607Z,43.37
2023-04-30T16:57:39.667Z,42.78
2023-04-30T17:00:12.559Z,43.25
2023-04-30T17:02:41.077Z,42.73
2023-04-30T17:05:11.097Z,42.66
2023-04-30T17:07:44.671Z,43.36
2023-04-30T17:10:14.650Z,42.95
2023-04-30T17:12:46.167Z,43.93
2023-04-30T17:15:29.446Z,43.30
2023-04-30T17:17:58.993Z,43.72
2023-04-30T17:20:27.266Z,43.72
2023-04-30T17:22:56.281Z,43.83
2023-04-30T17:25:24.656Z,43.63
2023-04-30T17:27:57.576Z,44.00
2023-04-30T17:30:27.011Z,44.30
2023-04-30T17:32:56.753Z,44.64
2023-04-30T17:35:25.438Z,44.67
2023-04-30T17:37:53.714Z,44.90
2023-04-30T17:40:22.384Z,45.06
2023-04-30T17:42:52.066Z,45.11
2023-04-30T17:45:20.337Z,45.63
2023-04-30T17:47:49.966Z,45.98
2023-04-30T17:50:23.818Z,45.98
2023-04-30T17:53:23.621Z,45.72
2023-04-30T17:56:30.797Z,45.86
2023-04-30T17:59:32.371Z,45.30
2023-04-30T20:04:04.639Z,51.61
2023-04-30T20:10:30.493Z,52.17
2023-04-30T20:13:47.954Z,52.36
2023-04-30T20:17:28.551Z,52.88
2023-04-30T20:20:28.633Z,53.04
2023-04-30T20:22:54.855Z,52.85
2023-04-30T20:25:35.174Z,53.16
2023-04-30T20:28:44.281Z,53.36
2023-04-30T20:31:37.419Z,53.31
2023-04-30T20:38:39.089Z,53.90
2023-04-30T20:49:09.275Z,54.17
2023-04-30T20:51:36.851Z,54.23
2023-04-30T20:54:05.417Z,54.48
2023-04-30T20:56:34.946Z,54.66
2023-04-30T20:59:05.902Z,54.34
2023-04-30T21:01:34.102Z,54.63
2023-04-30T21:04:04.819Z,54.42
2023-04-30T21:06:33.241Z,54.80
2023-04-30T21:09:53.403Z,54.58
2023-04-30T21:12:23.238Z,54.45
2023-04-30T21:14:52.143Z,54.73
2023-04-30T21:17:20.298Z,55.13
2023-04-30T21:19:53.352Z,55.17
2023-04-30T21:22:24.152Z,55.19
2023-04-30T21:24:57.115Z,55.27
2023-04-30T21:27:26.807Z,55.35
2023-04-30T21:29:55.236Z,55.60
2023-04-30T21:32:23.588Z,55.72
2023-04-30T21:34:53.683Z,56.00
2023-04-30T21:37:22.199Z,55.86
2023-04-30T21:39:51.588Z,55.71
2023-04-30T21:42:22.126Z,55.76
2023-04-30T21:44:51.862Z,55.89
2023-04-30T21:47:22.031Z,55.83
2023-04-30T21:49:50.380Z,55.91
2023-04-30T21:52:18.622Z,56.09
2023-04-30T21:54:50.202Z,55.88
2023-04-30T21:57:19.541Z,56.34
2023-04-30T21:59:47.753Z,56.74
2023-04-30T22:02:23.948Z,56.82
2023-04-30T22:04:58.177Z,56.56
2023-04-30T22:07:27.577Z,56.48
2023-04-30T22:10:03.471Z,56.65
2023-04-30T22:12:32.054Z,56.64
2023-04-30T22:15:05.530Z,56.24
2023-04-30T22:17:35.625Z,56.21
2023-04-30T22:20:27.398Z,56.52
2023-04-30T22:22:56.015Z,56.64
2023-04-30T22:25:24.665Z,56.67
2023-04-30T22:27:52.995Z,56.43
2023-04-30T22:30:24.445Z,56.95
2023-04-30T22:32:57.609Z,56.80
2023-04-30T22:35:29.007Z,56.59
2023-04-30T22:38:01.956Z,56.83
2023-04-30T22:40:31.010Z,56.95
2023-04-30T22:43:00.288Z,56.91
2023-04-30T22:45:30.997Z,57.05
2023-04-30T22:48:01.956Z,56.73
2023-04-30T22:50:32.105Z,56.95
2023-04-30T22:53:02.857Z,57.32
2023-04-30T22:55:33.649Z,56.84
2023-04-30T22:58:02.108Z,57.06
2023-04-30T23:00:32.651Z,57.14
2023-04-30T23:03:02.644Z,56.80
2023-04-30T23:05:31.028Z,56.80
2023-04-30T23:07:59.363Z,57.11
2023-04-30T23:10:27.740Z,57.11
2023-04-30T23:12:56.635Z,57.06
2023-04-30T23:15:28.487Z,56.96
2023-04-30T23:17:58.471Z,56.91
2023-04-30T23:20:28.525Z,57.10
2023-04-30T23:22:59.977Z,57.32
2023-04-30T23:25:29.319Z,57.38
2023-04-30T23:27:58.257Z,57.57
2023-04-30T23:30:26.811Z,57.80
2023-04-30T23:32:54.892Z,57.62
2023-04-30T23:35:27.508Z,57.69
2023-04-30T23:37:57.371Z,58.06
2023-04-30T23:40:27.059Z,58.01
2023-04-30T23:42:55.537Z,57.83
2023-04-30T23:45:26.040Z,58.09
2023-04-30T23:47:54.214Z,57.99
2023-04-30T23:50:22.446Z,58.20
2023-04-30T23:52:50.686Z,58.39
2023-04-30T23:55:23.300Z,58.16
2023-04-30T23:57:53.392Z,58.19
